Time;durP1;ratioP1;P1;durP2;ratioP2;P2;SDS_P1;SDS_P2;PMS_P1;PMS_P2;Temp;Humidity;BMP_temperature;BMP_pressure;BME280_temperature;BME280_humidity;BME280_pressure;Samples;Min_cycle;Max_cycle;Signal;HPM_P1;HPM_P2
2023/05/08 00:00:27;;;;;;;8.40;7.50;;;16.30;99.90;;;;;;10469438;28;20636;-71
2023/05/08 00:05:28;;;;;;;8.57;7.67;;;16.20;99.90;;;;;;10465014;28;20190;-72
2023/05/08 00:10:29;;;;;;;8.43;7.57;;;16.10;99.90;;;;;;10470890;28;20225;-72
2023/05/08 00:15:30;;;;;;;11.53;7.90;;;16.00;99.90;;;;;;10467631;28;20223;-74
2023/05/08 00:20:30;;;;;;;9.93;8.40;;;16.00;99.90;;;;;;10463474;28;20217;-73
2023/05/08 00:25:31;;;;;;;9.23;8.27;;;15.90;99.90;;;;;;10470230;28;20245;-72
2023/05/08 00:30:31;;;;;;;12.53;8.83;;;15.80;99.90;;;;;;10472803;28;20223;-72
2023/05/08 00:35:32;;;;;;;9.30;8.40;;;15.70;99.90;;;;;;10465272;28;20332;-72
2023/05/08 00:40:32;;;;;;;9.57;8.67;;;15.70;99.90;;;;;;10473022;28;20750;-73
2023/05/08 00:45:38;;;;;;;11.60;9.03;;;15.60;99.90;;;;;;10472419;28;20241;-72
2023/05/08 00:50:38;;;;;;;9.87;8.90;;;15.50;99.90;;;;;;10473803;28;20230;-72
2023/05/08 00:55:39;;;;;;;10.27;9.23;;;15.50;99.90;;;;;;10484136;28;20234;-72
2023/05/08 01:00:42;;;;;;;11.13;9.10;;;15.50;99.90;;;;;;10477921;28;20222;-72
2023/05/08 01:05:43;;;;;;;10.27;9.27;;;15.50;99.90;;;;;;10472182;28;20224;-73
2023/05/08 01:10:53;;;;;;;10.40;8.60;;;15.40;99.90;;;;;;10465357;28;20230;-73
2023/05/08 01:16:13;;;;;;;9.90;8.90;;;15.40;99.90;;;;;;10464031;28;20263;-73
2023/05/08 01:21:28;;;;;;;10.67;9.60;;;15.40;99.90;;;;;;10472684;28;20589;-72
2023/05/08 01:26:40;;;;;;;11.13;10.03;;;15.40;99.90;;;;;;10474284;28;20231;-73
2023/05/08 01:32:05;;;;;;;11.07;9.97;;;15.50;99.90;;;;;;10469876;28;20238;-72
2023/05/08 01:37:13;;;;;;;10.30;9.40;;;15.50;99.90;;;;;;10464897;28;20226;-71
2023/05/08 01:42:38;;;;;;;12.47;9.20;;;15.40;99.90;;;;;;10478682;28;20219;-73
2023/05/08 01:47:40;;;;;;;12.17;9.90;;;15.40;99.90;;;;;;10464037;28;20214;-72
2023/05/08 01:53:00;;;;;;;11.10;9.93;;;15.40;99.90;;;;;;10477353;28;20221;-72
2023/05/08 01:58:06;;;;;;;12.40;9.90;;;15.40;99.90;;;;;;10463669;28;20274;-73
2023/05/08 02:03:08;;;;;;;10.20;9.20;;;15.40;99.90;;;;;;10470723;28;20222;-72
2023/05/08 02:08:11;;;;;;;9.63;8.80;;;15.30;99.90;;;;;;10467572;28;20221;-72
2023/05/08 02:13:13;;;;;;;9.20;8.40;;;15.20;99.90;;;;;;10468034;28;20305;-71
2023/05/08 02:18:17;;;;;;;11.67;9.13;;;15.30;99.90;;;;;;10476683;28;20227;-72
2023/05/08 02:23:20;;;;;;;9.57;8.20;;;15.30;99.90;;;;;;10479315;28;20887;-73
2023/05/08 02:28:22;;;;;;;8.50;7.67;;;15.40;99.90;;;;;;10471237;28;20671;-73
2023/05/08 02:33:25;;;;;;;11.30;7.90;;;15.40;99.90;;;;;;10473122;28;20626;-72
2023/05/08 02:38:26;;;;;;;8.70;7.90;;;15.40;99.90;;;;;;10476975;28;20720;-72
2023/05/08 02:43:27;;;;;;;8.97;7.97;;;15.30;99.90;;;;;;10482277;28;20624;-72
2023/05/08 02:48:35;;;;;;;8.50;7.60;;;15.30;99.90;;;;;;10478688;28;20230;-72
2023/05/08 02:53:42;;;;;;;10.77;7.30;;;15.30;99.90;;;;;;10489833;28;20587;-73
2023/05/08 02:58:48;;;;;;;9.77;7.00;;;15.30;99.90;;;;;;10480660;28;20246;-73
2023/05/08 03:03:58;;;;;;;9.43;7.07;;;15.20;99.90;;;;;;10475975;28;20233;-73
2023/05/08 03:09:00;;;;;;;7.50;6.80;;;15.20;99.90;;;;;;10476573;28;20226;-73
2023/05/08 03:14:03;;;;;;;8.50;7.10;;;15.10;99.90;;;;;;10472586;28;20221;-72
2023/05/08 03:19:08;;;;;;;7.90;7.10;;;15.00;99.90;;;;;;10469095;28;20311;-71
2023/05/08 03:24:10;;;;;;;7.63;7.03;;;15.00;99.90;;;;;;10476501;28;20218;-73
2023/05/08 03:29:13;;;;;;;8.17;6.50;;;14.90;99.90;;;;;;10466604;28;20228;-74
2023/05/08 03:34:16;;;;;;;7.33;6.63;;;14.90;99.90;;;;;;10472767;28;20210;-73
2023/05/08 03:39:17;;;;;;;7.30;6.60;;;14.90;99.90;;;;;;10470824;28;20228;-72
2023/05/08 03:44:18;;;;;;;7.53;6.83;;;14.90;99.90;;;;;;10464638;28;20730;-73
2023/05/08 03:49:22;;;;;;;9.27;7.43;;;14.90;99.90;;;;;;10469148;28;20718;-73
2023/05/08 03:54:24;;;;;;;8.33;7.53;;;14.90;99.90;;;;;;10474154;28;20212;-72
2023/05/08 03:59:41;;;;;;;8.50;7.00;;;14.90;99.90;;;;;;10469811;28;20227;-73
2023/05/08 04:04:44;;;;;;;7.93;7.13;;;14.90;99.90;;;;;;10466766;28;20217;-73
2023/05/08 04:10:03;;;;;;;11.30;7.90;;;14.90;99.90;;;;;;10471894;28;20309;-73
2023/05/08 04:15:08;;;;;;;8.13;7.20;;;14.90;99.90;;;;;;10464992;28;20224;-72
2023/05/08 04:20:15;;;;;;;9.60;7.43;;;14.80;99.90;;;;;;10485679;28;20254;-71
2023/05/08 04:25:17;;;;;;;10.17;7.63;;;14.80;99.90;;;;;;10467801;28;20793;-73
2023/05/08 04:30:17;;;;;;;8.10;7.30;;;14.80;99.90;;;;;;10462527;28;20212;-73
2023/05/08 04:35:21;;;;;;;7.97;6.90;;;14.80;99.90;;;;;;10467135;28;20179;-73
2023/05/08 04:40:22;;;;;;;11.93;7.13;;;14.80;99.90;;;;;;10472142;28;20545;-73
2023/05/08 04:45:22;;;;;;;8.20;7.07;;;14.90;99.90;;;;;;10471115;28;20189;-72
2023/05/08 04:50:23;;;;;;;7.87;7.17;;;14.70;99.90;;;;;;10474301;28;20207;-73
2023/05/08 04:55:24;;;;;;;8.00;7.03;;;14.60;99.90;;;;;;10464810;28;20182;-72
2023/05/08 05:00:24;;;;;;;13.37;8.40;;;14.60;99.90;;;;;;10467335;28;20234;-72
2023/05/08 05:05:25;;;;;;;16.13;9.07;;;14.60;99.90;;;;;;10466332;28;20310;-73
2023/05/08 05:10:25;;;;;;;7.37;6.73;;;14.60;99.90;;;;;;10470779;28;20239;-71
2023/05/08 05:15:26;;;;;;;8.30;7.50;;;14.50;99.90;;;;;;10469910;28;20218;-73
2023/05/08 05:20:27;;;;;;;7.53;6.87;;;14.60;99.90;;;;;;10472251;28;20768;-73
2023/05/08 05:25:28;;;;;;;8.73;7.47;;;14.50;99.90;;;;;;10465670;28;20227;-73
2023/05/08 05:30:28;;;;;;;7.80;7.10;;;14.50;99.90;;;;;;10466475;28;20268;-72
2023/05/08 05:35:29;;;;;;;7.77;7.07;;;14.60;99.90;;;;;;10464484;28;20225;-72
2023/05/08 05:40:29;;;;;;;12.47;7.40;;;14.70;99.90;;;;;;10467703;28;20224;-72
2023/05/08 05:45:31;;;;;;;8.73;7.53;;;14.70;99.90;;;;;;10469371;28;20212;-73
2023/05/08 05:50:31;;;;;;;10.40;7.07;;;14.80;99.90;;;;;;10468525;28;20229;-72
2023/05/08 05:55:33;;;;;;;8.53;7.73;;;14.80;99.90;;;;;;10479298;28;20700;-72
2023/05/08 06:00:33;;;;;;;7.97;7.17;;;14.70;99.90;;;;;;10474726;28;20725;-71
2023/05/08 06:05:34;;;;;;;8.10;7.30;;;14.70;99.90;;;;;;10480315;28;20215;-72
2023/05/08 06:10:35;;;;;;;8.50;7.70;;;14.70;99.90;;;;;;10475841;28;20584;-73
2023/05/08 06:15:35;;;;;;;7.90;7.07;;;14.80;99.90;;;;;;10471342;28;20212;-71
2023/05/08 06:20:37;;;;;;;9.10;7.80;;;14.80;99.90;;;;;;10473605;28;20216;-73
2023/05/08 06:25:38;;;;;;;7.83;7.13;;;14.90;99.90;;;;;;10474143;28;20221;-73
2023/05/08 06:30:38;;;;;;;10.70;7.63;;;14.90;99.90;;;;;;10462212;28;20221;-73
2023/05/08 06:35:39;;;;;;;11.53;7.30;;;14.90;99.90;;;;;;10473529;28;20297;-72
2023/05/08 06:40:44;;;;;;;8.97;6.43;;;15.00;99.90;;;;;;10474643;28;20723;-71
2023/05/08 06:45:45;;;;;;;10.93;7.03;;;15.10;99.90;;;;;;10473913;28;20219;-73
2023/05/08 06:50:46;;;;;;;10.07;8.27;;;15.10;99.90;;;;;;10476039;28;20596;-73
2023/05/08 06:55:50;;;;;;;9.87;7.70;;;15.10;99.90;;;;;;10475352;28;20227;-73
2023/05/08 07:00:51;;;;;;;11.83;8.30;;;15.20;99.90;;;;;;10483357;28;20224;-73
2023/05/08 07:05:52;;;;;;;8.50;7.70;;;15.40;99.90;;;;;;10475084;28;20225;-73
2023/05/08 07:10:52;;;;;;;9.17;7.40;;;15.60;99.90;;;;;;10472846;28;20312;-72
2023/05/08 07:15:54;;;;;;;7.83;6.90;;;15.70;99.90;;;;;;10483749;28;20250;-72
2023/05/08 07:20:54;;;;;;;7.20;6.30;;;15.70;99.90;;;;;;10466069;28;20662;-72
2023/05/08 07:25:56;;;;;;;7.53;6.73;;;15.70;99.90;;;;;;10475295;28;20248;-73
2023/05/08 07:30:56;;;;;;;8.07;7.27;;;15.70;99.90;;;;;;10470665;28;20722;-73
2023/05/08 07:35:57;;;;;;;7.20;6.60;;;15.90;99.90;;;;;;10473721;28;20247;-73
2023/05/08 07:41:00;;;;;;;10.30;7.27;;;15.90;99.90;;;;;;10463613;28;20270;-72
2023/05/08 07:46:01;;;;;;;8.50;7.70;;;15.80;99.90;;;;;;10467558;28;20249;-73
2023/05/08 07:51:02;;;;;;;10.57;6.60;;;16.00;99.90;;;;;;10473597;28;20295;-72
2023/05/08 07:56:04;;;;;;;9.73;6.90;;;16.40;99.90;;;;;;10480065;28;20223;-73
2023/05/08 08:01:04;;;;;;;6.93;6.20;;;16.80;99.90;;;;;;10467383;28;20222;-71
2023/05/08 08:06:05;;;;;;;7.37;6.67;;;17.20;99.90;;;;;;10471245;28;20217;-72
2023/05/08 08:11:06;;;;;;;6.97;6.27;;;17.10;99.90;;;;;;10466346;28;20317;-73
2023/05/08 08:16:06;;;;;;;10.17;6.73;;;16.80;99.90;;;;;;10469451;28;20218;-73
2023/05/08 08:21:07;;;;;;;7.97;6.80;;;16.70;99.90;;;;;;10466694;28;20226;-72
2023/05/08 08:26:08;;;;;;;7.37;6.67;;;16.80;99.90;;;;;;10469292;28;20288;-72
2023/05/08 08:31:08;;;;;;;7.30;6.60;;;16.90;99.90;;;;;;10466540;28;20732;-72
2023/05/08 08:36:13;;;;;;;7.60;6.80;;;17.30;99.90;;;;;;10477709;28;20218;-72
2023/05/08 08:41:14;;;;;;;7.27;6.67;;;17.50;99.90;;;;;;10467036;28;20229;-73
2023/05/08 08:46:18;;;;;;;7.67;6.90;;;17.70;99.90;;;;;;10471022;28;20580;-72
2023/05/08 08:51:44;;;;;;;7.73;6.63;;;17.90;99.90;;;;;;10474292;28;20275;-72
2023/05/08 08:56:48;;;;;;;7.67;6.70;;;18.30;99.90;;;;;;10477659;28;20301;-72
2023/05/08 09:01:55;;;;;;;7.57;6.80;;;18.10;99.90;;;;;;10474097;28;20217;-73
2023/05/08 09:06:57;;;;;;;7.67;6.90;;;17.90;99.90;;;;;;10479709;28;20223;-73
2023/05/08 09:11:57;;;;;;;7.40;6.50;;;17.90;99.90;;;;;;10470655;28;20232;-72
2023/05/08 09:16:58;;;;;;;7.87;7.17;;;17.70;99.90;;;;;;10475283;28;20215;-71
2023/05/08 09:22:00;;;;;;;7.80;7.10;;;17.40;99.90;;;;;;10472174;28;20227;-71
2023/05/08 09:27:00;;;;;;;7.50;6.90;;;17.10;99.90;;;;;;10479931;28;20646;-73
2023/05/08 09:32:01;;;;;;;8.27;7.10;;;17.00;99.90;;;;;;10470758;28;20234;-72
2023/05/08 09:37:04;;;;;;;7.67;6.70;;;17.10;99.90;;;;;;10476276;28;20727;-73
2023/05/08 09:42:05;;;;;;;8.57;7.43;;;17.00;99.90;;;;;;10471637;28;20221;-72
2023/05/08 09:47:10;;;;;;;7.87;6.77;;;17.00;99.90;;;;;;10486188;28;20598;-72
2023/05/08 09:52:14;;;;;;;9.10;6.83;;;17.00;99.90;;;;;;10466839;28;20236;-72
2023/05/08 09:57:15;;;;;;;8.83;7.13;;;17.10;99.90;;;;;;10474764;28;20301;-73
2023/05/08 10:02:19;;;;;;;7.83;6.80;;;17.20;99.90;;;;;;10473228;28;20458;-71
2023/05/08 10:07:33;;;;;;;8.63;7.63;;;17.30;99.90;;;;;;10472957;28;20765;-73
2023/05/08 10:12:34;;;;;;;9.83;7.90;;;17.40;99.90;;;;;;10475975;28;20238;-73
2023/05/08 10:17:48;;;;;;;8.30;7.50;;;17.40;99.90;;;;;;10469313;28;20256;-72
2023/05/08 10:22:50;;;;;;;8.10;7.30;;;17.50;99.90;;;;;;10470142;28;20579;-72
2023/05/08 10:27:56;;;;;;;8.63;7.77;;;17.70;99.90;;;;;;10477518;28;20249;-72
2023/05/08 10:32:59;;;;;;;8.23;7.10;;;18.10;99.90;;;;;;10469183;28;20310;-73
2023/05/08 10:38:01;;;;;;;7.73;6.93;;;18.80;99.90;;;;;;10482761;28;20224;-72
2023/05/08 10:43:02;;;;;;;8.40;7.50;;;19.30;99.90;;;;;;10480857;28;20219;-73
2023/05/08 10:48:03;;;;;;;7.33;6.60;;;19.80;99.90;;;;;;10467912;28;20226;-72
2023/05/08 10:53:40;;;;;;;8.87;6.97;;;20.30;99.90;;;;;;10480592;28;20211;-72
2023/05/08 10:58:40;;;;;;;9.93;8.03;;;20.60;99.90;;;;;;10422062;28;20226;-73
2023/05/08 11:03:47;;;;;;;9.93;7.13;;;20.50;99.90;;;;;;10475557;28;20713;-72
2023/05/08 11:08:50;;;;;;;9.47;7.27;;;20.40;99.90;;;;;;10474916;28;20223;-72
2023/05/08 11:13:55;;;;;;;11.97;7.57;;;20.30;99.90;;;;;;10481898;28;20234;-73
2023/05/08 11:19:15;;;;;;;11.97;9.10;;;20.10;99.90;;;;;;10483130;28;20220;-73
2023/05/08 11:24:31;;;;;;;8.33;7.63;;;20.10;99.90;;;;;;10475548;28;20226;-72
2023/05/08 11:29:32;;;;;;;9.20;8.30;;;20.10;99.90;;;;;;10477127;28;20281;-72
2023/05/08 11:34:41;;;;;;;9.07;8.10;;;20.10;99.90;;;;;;10471701;28;20222;-74
2023/05/08 11:39:42;;;;;;;8.23;7.53;;;20.30;99.90;;;;;;10468062;28;20227;-72
2023/05/08 11:44:45;;;;;;;7.97;7.17;;;20.80;99.90;;;;;;10472432;28;20223;-73
2023/05/08 11:49:46;;;;;;;10.07;8.00;;;21.10;99.90;;;;;;10465592;28;20231;-73
2023/05/08 11:54:47;;;;;;;7.90;7.10;;;20.90;99.90;;;;;;10474029;28;20220;-72
2023/05/08 11:59:51;;;;;;;8.47;7.67;;;21.20;99.90;;;;;;10471664;28;20234;-73
2023/05/08 12:04:51;;;;;;;7.03;6.43;;;21.50;99.90;;;;;;10466166;28;20231;-73
2023/05/08 12:09:52;;;;;;;7.40;6.80;;;21.70;99.90;;;;;;10465496;28;20239;-72
2023/05/08 12:14:53;;;;;;;9.60;6.90;;;21.90;99.90;;;;;;10465692;28;20219;-74
2023/05/08 12:19:55;;;;;;;8.30;7.53;;;22.00;99.90;;;;;;10464997;28;20288;-71
2023/05/08 12:24:56;;;;;;;9.97;8.47;;;21.70;99.90;;;;;;10472935;28;20231;-72
2023/05/08 12:29:57;;;;;;;8.90;8.10;;;21.20;99.90;;;;;;10473423;28;20231;-73
2023/05/08 12:34:58;;;;;;;9.07;8.27;;;21.20;99.90;;;;;;10471693;28;20682;-72
2023/05/08 12:39:59;;;;;;;9.33;8.43;;;21.40;99.90;;;;;;10470448;28;20246;-72
2023/05/08 12:45:00;;;;;;;8.33;7.63;;;21.20;99.90;;;;;;10480817;28;20223;-73
2023/05/08 12:50:01;;;;;;;8.00;6.87;;;20.90;99.90;;;;;;10470279;28;20223;-72
2023/05/08 12:55:05;;;;;;;10.70;9.60;;;21.00;99.90;;;;;;10460902;28;20223;-72
2023/05/08 13:00:06;;;;;;;9.40;8.50;;;20.60;99.90;;;;;;10465238;28;20212;-72
2023/05/08 13:05:07;;;;;;;10.27;8.93;;;20.60;99.90;;;;;;10469340;28;20199;-73
2023/05/08 13:10:08;;;;;;;9.97;9.10;;;20.20;99.90;;;;;;10470173;28;20286;-72
2023/05/08 13:15:09;;;;;;;11.47;8.93;;;20.00;99.90;;;;;;10469049;28;20248;-72
2023/05/08 13:20:10;;;;;;;9.20;8.37;;;19.60;99.90;;;;;;10465581;28;20279;-74
2023/05/08 13:25:11;;;;;;;10.23;9.23;;;19.50;99.90;;;;;;10469042;28;20293;-73
2023/05/08 13:30:14;;;;;;;9.80;8.80;;;19.30;99.90;;;;;;10469060;28;20210;-73
2023/05/08 13:35:14;;;;;;;9.33;8.57;;;19.20;99.90;;;;;;10465527;28;20176;-72
2023/05/08 13:40:15;;;;;;;11.60;9.23;;;19.30;99.90;;;;;;10467618;28;20556;-72
2023/05/08 13:45:17;;;;;;;11.93;10.50;;;19.40;99.90;;;;;;10464813;28;20192;-72
2023/05/08 13:50:20;;;;;;;12.60;11.57;;;18.80;99.90;;;;;;10471544;28;20272;-73
2023/05/08 13:55:21;;;;;;;13.37;12.17;;;18.30;99.90;;;;;;10467041;28;20227;-72
2023/05/08 14:00:22;;;;;;;13.17;11.80;;;18.10;99.90;;;;;;10462367;28;20557;-73
2023/05/08 14:05:22;;;;;;;11.93;10.93;;;18.40;99.90;;;;;;10464929;28;20201;-73
2023/05/08 14:10:23;;;;;;;11.40;10.40;;;18.70;99.90;;;;;;10471256;28;20276;-72
2023/05/08 14:15:23;;;;;;;12.03;10.83;;;18.50;99.90;;;;;;10473593;28;21023;-74
2023/05/08 14:20:24;;;;;;;12.23;9.67;;;18.30;99.90;;;;;;10473381;28;20713;-72
2023/05/08 14:25:25;;;;;;;10.23;9.33;;;18.20;99.90;;;;;;10471870;28;20226;-73
2023/05/08 14:30:25;;;;;;;10.53;9.43;;;18.30;99.90;;;;;;10472950;28;20292;-72
2023/05/08 14:35:26;;;;;;;8.37;7.53;;;18.20;99.90;;;;;;10471023;28;20218;-72
2023/05/08 14:40:26;;;;;;;7.93;7.17;;;18.60;99.90;;;;;;10469354;28;20218;-72
2023/05/08 14:45:27;;;;;;;9.20;7.30;;;18.30;99.90;;;;;;10472458;28;20637;-72
2023/05/08 14:50:27;;;;;;;8.33;7.53;;;18.10;99.90;;;;;;10475885;28;20227;-73
2023/05/08 14:55:28;;;;;;;9.20;8.30;;;17.90;99.90;;;;;;10472417;28;20696;-72
2023/05/08 15:00:29;;;;;;;9.37;8.50;;;17.90;99.90;;;;;;10473591;28;20252;-73
2023/05/08 15:05:30;;;;;;;10.17;9.20;;;17.80;99.90;;;;;;10471043;28;20217;-72
2023/05/08 15:10:30;;;;;;;9.90;9.00;;;17.50;99.90;;;;;;10476227;28;20237;-73
2023/05/08 15:15:31;;;;;;;11.30;10.10;;;17.40;99.90;;;;;;10471642;28;20238;-73
2023/05/08 15:20:32;;;;;;;10.20;9.30;;;17.30;99.90;;;;;;10481561;28;20683;-74
2023/05/08 15:25:32;;;;;;;10.43;9.43;;;17.40;99.90;;;;;;10473499;28;20232;-72
2023/05/08 15:30:33;;;;;;;9.30;8.50;;;17.50;99.90;;;;;;10479664;28;20252;-72
2023/05/08 15:35:33;;;;;;;10.17;9.10;;;17.40;99.90;;;;;;10468060;28;20229;-72
2023/05/08 15:40:34;;;;;;;10.10;9.20;;;17.20;99.90;;;;;;10471997;28;20877;-73
2023/05/08 15:45:34;;;;;;;9.37;8.57;;;17.20;99.90;;;;;;10467441;28;20303;-72
2023/05/08 15:50:35;;;;;;;10.63;9.63;;;17.10;99.90;;;;;;10479128;28;20273;-72
2023/05/08 15:55:36;;;;;;;10.07;9.07;;;17.20;99.90;;;;;;10476742;28;20400;-72
2023/05/08 16:00:36;;;;;;;10.43;9.43;;;17.40;99.90;;;;;;10464160;28;20597;-71
2023/05/08 16:05:38;;;;;;;9.97;8.93;;;17.60;99.90;;;;;;10469556;28;20248;-73
2023/05/08 16:10:39;;;;;;;10.97;8.37;;;17.80;99.90;;;;;;10466471;28;20234;-72
2023/05/08 16:15:40;;;;;;;10.53;9.50;;;17.90;99.90;;;;;;10469126;28;20252;-73
2023/05/08 16:20:41;;;;;;;9.57;8.77;;;18.00;99.90;;;;;;10466190;28;20301;-72
2023/05/08 16:25:41;;;;;;;9.70;8.80;;;17.90;99.90;;;;;;10470713;28;20223;-72
2023/05/08 16:30:42;;;;;;;9.97;9.07;;;17.80;99.90;;;;;;10463118;28;20237;-72
2023/05/08 16:35:42;;;;;;;10.20;9.30;;;17.80;99.90;;;;;;10474774;28;20310;-72
2023/05/08 16:40:44;;;;;;;10.87;9.50;;;17.70;99.90;;;;;;10465142;28;20233;-72
2023/05/08 16:45:45;;;;;;;10.50;9.47;;;17.60;99.90;;;;;;10481345;28;20225;-72
2023/05/08 16:50:45;;;;;;;10.70;9.63;;;17.60;99.90;;;;;;10475732;28;20572;-72
2023/05/08 16:55:46;;;;;;;10.50;9.60;;;17.70;99.90;;;;;;10471735;28;20244;-73
2023/05/08 17:00:47;;;;;;;9.90;9.00;;;17.90;99.90;;;;;;10464700;28;20246;-73
2023/05/08 17:05:48;;;;;;;11.03;10.03;;;18.20;99.90;;;;;;10469159;28;20218;-73
2023/05/08 17:10:48;;;;;;;11.60;10.40;;;18.30;99.90;;;;;;10469361;28;20338;-73
2023/05/08 17:15:49;;;;;;;17.03;10.77;;;18.10;99.90;;;;;;10469306;28;20268;-73
2023/05/08 17:20:49;;;;;;;11.47;10.37;;;18.00;99.90;;;;;;10471430;28;20269;-73
2023/05/08 17:25:59;;;;;;;13.83;10.67;;;17.80;99.90;;;;;;10463911;28;20248;-73
2023/05/08 17:31:00;;;;;;;11.30;10.13;;;17.60;99.90;;;;;;10461949;28;20288;-75
2023/05/08 17:36:01;;;;;;;11.33;10.27;;;17.60;99.90;;;;;;10469292;28;20284;-73
2023/05/08 17:41:01;;;;;;;11.97;10.77;;;17.40;99.90;;;;;;10468087;28;20285;-73
2023/05/08 17:46:02;;;;;;;11.43;10.33;;;17.40;99.90;;;;;;10467981;28;20263;-73
2023/05/08 17:51:02;;;;;;;11.47;10.40;;;17.40;99.90;;;;;;10484971;28;20236;-72
2023/05/08 17:56:03;;;;;;;12.57;10.50;;;17.40;99.90;;;;;;10482194;28;20312;-73
2023/05/08 18:01:05;;;;;;;11.30;10.20;;;17.30;99.90;;;;;;10476544;28;20422;-73
2023/05/08 18:06:06;;;;;;;11.40;9.97;;;17.30;99.90;;;;;;10470187;28;20233;-73
2023/05/08 18:11:15;;;;;;;10.87;9.87;;;17.30;99.90;;;;;;10475904;28;20333;-72
2023/05/08 18:16:17;;;;;;;10.03;9.03;;;17.30;99.90;;;;;;10472478;28;20227;-73
2023/05/08 18:21:17;;;;;;;10.27;9.27;;;17.40;99.90;;;;;;10472288;28;20233;-72
2023/05/08 18:26:18;;;;;;;11.27;9.20;;;17.20;99.90;;;;;;10471832;28;20664;-72
2023/05/08 18:31:18;;;;;;;10.77;9.77;;;17.10;99.90;;;;;;10472696;28;20234;-73
2023/05/08 18:36:19;;;;;;;11.57;9.97;;;17.00;99.90;;;;;;10472360;28;20221;-72
2023/05/08 18:41:20;;;;;;;12.60;11.40;;;17.00;99.90;;;;;;10476565;28;20225;-73
2023/05/08 18:46:20;;;;;;;12.47;11.10;;;16.90;99.90;;;;;;10471368;28;20233;-73
2023/05/08 18:51:21;;;;;;;12.83;11.53;;;17.00;99.90;;;;;;10472999;28;20270;-73
2023/05/08 18:56:22;;;;;;;12.50;11.30;;;16.80;99.90;;;;;;10478579;28;20226;-72
2023/05/08 19:01:22;;;;;;;13.73;11.43;;;16.70;99.90;;;;;;10472143;28;20227;-73
2023/05/08 19:06:23;;;;;;;11.20;10.10;;;16.70;99.90;;;;;;10470380;28;20228;-73
2023/05/08 19:11:24;;;;;;;12.27;10.93;;;16.70;99.90;;;;;;10479976;28;20328;-72
2023/05/08 19:16:31;;;;;;;12.90;11.70;;;16.60;99.90;;;;;;10469934;28;20306;-73
2023/05/08 19:21:32;;;;;;;12.47;11.17;;;16.60;99.90;;;;;;10469804;28;20681;-72
2023/05/08 19:26:32;;;;;;;12.87;11.60;;;16.50;99.90;;;;;;10490076;28;20257;-73
2023/05/08 19:31:33;;;;;;;14.30;12.10;;;16.50;99.90;;;;;;10471630;28;20333;-72
2023/05/08 19:36:33;;;;;;;11.87;10.70;;;16.40;99.90;;;;;;10468539;28;20711;-74
2023/05/08 19:41:37;;;;;;;13.70;12.30;;;16.30;99.90;;;;;;10471552;28;20217;-73
2023/05/08 19:46:38;;;;;;;14.10;12.63;;;16.30;99.90;;;;;;10475303;28;20237;-73
2023/05/08 19:51:39;;;;;;;13.30;12.10;;;16.30;99.90;;;;;;10469742;28;20217;-74
2023/05/08 19:56:39;;;;;;;14.83;13.30;;;16.30;99.90;;;;;;10470218;28;20237;-72
2023/05/08 20:01:40;;;;;;;14.67;13.27;;;16.30;99.90;;;;;;10469376;28;20253;-72
2023/05/08 20:06:41;;;;;;;15.17;13.67;;;16.30;99.90;;;;;;10472490;28;20224;-72
2023/05/08 20:11:45;;;;;;;13.07;11.87;;;16.30;99.90;;;;;;10464930;28;20232;-72
2023/05/08 20:16:46;;;;;;;14.77;12.73;;;16.30;99.90;;;;;;10472886;28;20224;-73
2023/05/08 20:21:46;;;;;;;14.80;13.20;;;16.30;99.90;;;;;;10465212;28;20228;-72
2023/05/08 20:26:47;;;;;;;15.50;13.90;;;16.30;99.90;;;;;;10470618;28;20232;-73
2023/05/08 20:31:49;;;;;;;13.33;11.53;;;16.30;99.90;;;;;;10468643;28;20898;-73
2023/05/08 20:36:51;;;;;;;12.47;11.37;;;16.30;99.90;;;;;;10472184;28;20272;-73
2023/05/08 20:41:51;;;;;;;12.50;11.30;;;16.40;99.90;;;;;;10471940;28;20311;-73
2023/05/08 20:46:52;;;;;;;12.67;11.57;;;16.40;99.90;;;;;;10469017;28;20223;-73
2023/05/08 20:51:52;;;;;;;11.87;10.77;;;16.40;99.90;;;;;;10479606;28;20239;-73
2023/05/08 20:56:53;;;;;;;12.43;11.27;;;16.40;99.90;;;;;;10464133;28;20229;-73
2023/05/08 21:01:53;;;;;;;10.93;9.93;;;16.50;99.90;;;;;;10470359;28;20312;-73
2023/05/08 21:06:54;;;;;;;10.33;9.33;;;16.40;99.90;;;;;;10476111;28;20216;-73
2023/05/08 21:11:55;;;;;;;11.90;10.73;;;16.40;99.90;;;;;;10462274;28;20225;-72
2023/05/08 21:16:55;;;;;;;10.43;9.53;;;16.40;99.90;;;;;;10479310;28;20226;-74
2023/05/08 21:21:56;;;;;;;10.27;9.30;;;16.40;99.90;;;;;;10469961;28;20223;-73
2023/05/08 21:26:58;;;;;;;11.30;10.20;;;16.40;99.90;;;;;;10471480;28;20220;-73
2023/05/08 21:31:59;;;;;;;10.37;9.37;;;16.50;99.90;;;;;;10462743;28;20279;-74
2023/05/08 21:36:59;;;;;;;10.07;9.17;;;16.50;99.90;;;;;;10469877;28;20559;-72
2023/05/08 21:42:00;;;;;;;11.03;9.90;;;16.50;99.90;;;;;;10462593;28;20378;-72
2023/05/08 21:47:00;;;;;;;9.13;8.27;;;16.50;99.90;;;;;;10477929;28;20316;-73
2023/05/08 21:52:01;;;;;;;8.70;8.00;;;16.60;99.90;;;;;;10472604;28;20265;-73
2023/05/08 21:57:01;;;;;;;11.70;9.50;;;16.50;99.90;;;;;;10470515;28;20227;-73
2023/05/08 22:02:02;;;;;;;9.83;8.97;;;16.60;99.90;;;;;;10463573;28;20227;-72
2023/05/08 22:07:03;;;;;;;10.80;9.70;;;16.60;99.90;;;;;;10468127;28;20954;-73
2023/05/08 22:12:05;;;;;;;8.33;7.43;;;16.60;99.90;;;;;;10469914;28;20241;-72
2023/05/08 22:17:05;;;;;;;8.73;7.93;;;16.60;99.90;;;;;;10484198;28;20220;-73
2023/05/08 22:22:06;;;;;;;8.13;7.40;;;16.60;99.90;;;;;;10463427;28;20221;-73
2023/05/08 22:27:06;;;;;;;9.50;8.60;;;16.60;99.90;;;;;;10469893;28;20227;-72
2023/05/08 22:32:07;;;;;;;9.20;8.30;;;16.60;99.90;;;;;;10472787;28;20225;-72
2023/05/08 22:37:08;;;;;;;8.63;7.83;;;16.60;99.90;;;;;;10469052;28;20225;-72
2023/05/08 22:42:09;;;;;;;7.43;6.70;;;16.60;99.90;;;;;;10475225;28;20224;-73
2023/05/08 22:47:11;;;;;;;8.17;7.47;;;16.60;99.90;;;;;;10476976;28;20279;-72
2023/05/08 22:52:11;;;;;;;8.33;7.50;;;16.50;99.90;;;;;;10486508;28;20223;-73
2023/05/08 22:57:13;;;;;;;8.60;7.80;;;16.50;99.90;;;;;;10472587;28;20310;-73
2023/05/08 23:02:13;;;;;;;10.53;8.73;;;16.40;99.90;;;;;;10467179;28;20230;-73
2023/05/08 23:07:14;;;;;;;9.17;8.27;;;16.30;99.90;;;;;;10476342;28;20266;-73
2023/05/08 23:12:14;;;;;;;13.60;9.17;;;16.30;99.90;;;;;;10474634;28;20244;-72
2023/05/08 23:17:15;;;;;;;9.37;8.47;;;16.30;99.90;;;;;;10472678;28;20228;-73
2023/05/08 23:22:18;;;;;;;9.83;8.80;;;16.20;99.90;;;;;;10471673;28;20232;-73
2023/05/08 23:27:19;;;;;;;10.93;9.30;;;16.10;99.90;;;;;;10470498;28;20244;-72
2023/05/08 23:32:21;;;;;;;10.83;8.60;;;16.20;99.90;;;;;;10467527;28;20233;-71
2023/05/08 23:37:21;;;;;;;9.23;8.33;;;16.10;99.90;;;;;;10470831;28;20224;-73
2023/05/08 23:42:22;;;;;;;9.70;8.77;;;16.10;99.90;;;;;;10470338;28;20256;-73
2023/05/08 23:47:22;;;;;;;10.23;9.30;;;16.20;99.90;;;;;;10468854;28;20232;-73
2023/05/08 23:52:23;;;;;;;11.30;10.20;;;16.20;99.90;;;;;;10472354;28;20240;-72
2023/05/08 23:57:24;;;;;;;10.60;9.60;;;16.10;99.90;;;;;;10468348;28;20232;-73
